createdAt,value
2019-02-20T00:02:33.697Z,0.61
2019-02-20T00:05:47.224Z,0.59
2019-02-20T00:09:00.977Z,0.61
2019-02-20T00:12:14.510Z,0.66
2019-02-20T00:15:28.035Z,0.68
2019-02-20T00:18:41.499Z,0.66
2019-02-20T00:21:55.285Z,0.56
2019-02-20T00:25:09.315Z,0.43
2019-02-20T00:28:22.891Z,0.44
2019-02-20T00:31:36.745Z,0.45
2019-02-20T00:34:50.208Z,0.47
2019-02-20T00:38:03.839Z,0.47
2019-02-20T00:41:17.369Z,0.35
2019-02-20T00:44:39.687Z,0.29
2019-02-20T00:48:15.833Z,0.11
2019-02-20T00:52:06.919Z,-0.01
2019-02-20T00:55:20.538Z,0.07
2019-02-20T00:58:34.403Z,0.12
2019-02-20T01:01:47.912Z,0.13
2019-02-20T01:05:01.567Z,0.11
2019-02-20T01:08:15.548Z,0.14
2019-02-20T01:11:29.369Z,0.19
2019-02-20T01:14:43.179Z,0.22
2019-02-20T01:17:56.664Z,0.14
2019-02-20T01:21:10.153Z,0.13
2019-02-20T01:24:23.662Z,0.00
2019-02-20T01:27:37.603Z,-0.09
2019-02-20T01:30:54.263Z,-0.13
2019-02-20T01:34:07.827Z,-0.11
2019-02-20T01:37:21.653Z,-0.06
2019-02-20T01:40:35.423Z,-0.04
2019-02-20T01:43:48.963Z,-0.06
2019-02-20T01:47:02.574Z,-0.06
2019-02-20T01:50:16.274Z,-0.16
2019-02-20T01:53:29.758Z,-0.09
2019-02-20T01:56:43.379Z,-0.10
2019-02-20T01:59:57.046Z,-0.04
2019-02-20T02:03:10.878Z,-0.04
2019-02-20T02:06:24.415Z,-0.09
2019-02-20T02:09:38.402Z,-0.11
2019-02-20T02:12:51.880Z,-0.30
2019-02-20T02:16:05.471Z,-0.41
2019-02-20T02:19:19.284Z,-0.44
2019-02-20T02:22:33.269Z,-0.54
2019-02-20T02:25:46.966Z,-0.45
2019-02-20T02:29:00.963Z,-0.40
2019-02-20T02:32:14.457Z,-0.37
2019-02-20T02:35:27.972Z,-0.38
2019-02-20T02:38:41.496Z,-0.38
2019-02-20T02:41:55.767Z,-0.57
2019-02-20T02:45:09.575Z,-0.54
2019-02-20T02:48:23.473Z,-0.53
2019-02-20T02:51:37.069Z,-0.56
2019-02-20T02:54:50.545Z,-0.46
2019-02-20T02:58:04.156Z,-0.39
2019-02-20T03:01:17.642Z,-0.48
2019-02-20T03:04:31.260Z,-0.48
2019-02-20T03:07:44.874Z,-0.47
2019-02-20T03:10:58.397Z,-0.51
2019-02-20T03:14:12.007Z,-0.43
2019-02-20T03:17:25.617Z,-0.37
2019-02-20T03:20:39.112Z,-0.44
2019-02-20T03:23:52.623Z,-0.57
2019-02-20T03:27:06.560Z,-0.64
2019-02-20T03:30:20.077Z,-0.55
2019-02-20T03:33:33.894Z,-0.54
2019-02-20T03:36:47.417Z,-0.52
2019-02-20T03:40:01.153Z,-0.55
2019-02-20T03:43:15.126Z,-0.61
2019-02-20T03:46:29.163Z,-0.66
2019-02-20T03:49:42.663Z,-0.61
2019-02-20T03:52:56.150Z,-0.55
2019-02-20T03:56:09.736Z,-0.49
2019-02-20T03:59:23.416Z,-0.46
2019-02-20T04:02:36.925Z,-0.48
2019-02-20T04:05:50.697Z,-0.54
2019-02-20T04:09:05.193Z,-0.61
2019-02-20T04:12:18.728Z,-0.68
2019-02-20T04:15:32.695Z,-0.70
2019-02-20T04:18:46.189Z,-0.67
2019-02-20T04:21:59.676Z,-0.66
2019-02-20T04:25:13.442Z,-0.67
2019-02-20T04:28:26.993Z,-0.58
2019-02-20T04:31:40.865Z,-0.54
2019-02-20T04:34:54.344Z,-0.53
2019-02-20T04:38:08.303Z,-0.49
2019-02-20T04:41:21.792Z,-0.56
2019-02-20T04:44:35.321Z,-0.66
2019-02-20T04:47:49.249Z,-0.65
2019-02-20T04:51:02.866Z,-0.67
2019-02-20T04:54:16.480Z,-0.57
2019-02-20T04:57:30.283Z,-0.51
2019-02-20T05:00:44.205Z,-0.48
2019-02-20T05:03:57.735Z,-0.49
2019-02-20T05:07:11.371Z,-0.47
2019-02-20T05:10:24.845Z,-0.60
2019-02-20T05:13:38.363Z,-0.66
2019-02-20T05:16:51.840Z,-0.65
2019-02-20T05:20:05.837Z,-0.64
2019-02-20T05:23:19.640Z,-0.59
2019-02-20T05:26:33.129Z,-0.59
2019-02-20T05:29:46.619Z,-0.58
2019-02-20T05:33:00.139Z,-0.61
2019-02-20T05:36:13.778Z,-0.69
2019-02-20T05:39:27.315Z,-0.80
2019-02-20T05:42:41.258Z,-0.73
2019-02-20T05:45:55.128Z,-0.68
2019-02-20T05:49:08.653Z,-0.61
2019-02-20T05:52:22.140Z,-0.55
2019-02-20T05:55:35.942Z,-0.50
2019-02-20T05:58:49.458Z,-0.48
2019-02-20T06:02:03.056Z,-0.47
2019-02-20T06:05:16.682Z,-0.66
2019-02-20T06:08:30.395Z,-0.74
2019-02-20T06:11:43.869Z,-0.67
2019-02-20T06:14:57.447Z,-0.61
2019-02-20T06:18:11.073Z,-0.56
2019-02-20T06:21:24.681Z,-0.56
2019-02-20T06:24:44.177Z,-0.57
2019-02-20T06:27:53.588Z,-0.59
2019-02-20T06:31:07.079Z,-0.74
2019-02-20T06:34:20.722Z,-0.65
2019-02-20T06:37:34.207Z,-0.59
2019-02-20T06:40:47.830Z,-0.55
2019-02-20T06:44:01.529Z,-0.55
2019-02-20T06:47:15.285Z,-0.49
2019-02-20T06:50:28.891Z,-0.46
2019-02-20T06:53:42.374Z,-0.57
2019-02-20T06:56:56.652Z,-0.64
2019-02-20T07:00:12.423Z,-0.68
2019-02-20T07:03:25.978Z,-0.71
2019-02-20T07:07:07.566Z,-0.60
2019-02-20T07:10:47.996Z,-0.51
2019-02-20T07:14:34.337Z,-0.35
2019-02-20T07:18:28.099Z,-0.34
2019-02-20T07:22:12.887Z,-0.23
2019-02-20T07:26:07.160Z,-0.19
2019-02-20T07:29:53.935Z,-0.16
2019-02-20T07:33:07.661Z,0.06
2019-02-20T07:36:21.284Z,0.30
2019-02-20T07:39:34.901Z,0.50
2019-02-20T07:42:48.582Z,0.75
2019-02-20T07:46:02.266Z,0.82
2019-02-20T07:49:15.934Z,0.94
2019-02-20T07:52:29.437Z,1.03
2019-02-20T07:55:42.897Z,1.19
2019-02-20T07:58:56.736Z,1.40
2019-02-20T08:02:10.501Z,1.52
2019-02-20T08:05:24.484Z,1.67
2019-02-20T08:08:37.997Z,1.80
2019-02-20T08:11:51.913Z,1.88
2019-02-20T08:15:25.052Z,1.93
2019-02-20T08:18:38.556Z,1.96
2019-02-20T08:21:52.177Z,2.17
2019-02-20T08:25:06.408Z,2.23
2019-02-20T08:28:19.940Z,2.39
2019-02-20T08:31:33.798Z,2.57
2019-02-20T08:34:47.673Z,2.71
2019-02-20T08:38:01.464Z,2.83
2019-02-20T08:41:15.316Z,3.03
2019-02-20T08:44:28.789Z,3.27
2019-02-20T08:47:42.288Z,3.42
2019-02-20T08:50:55.825Z,3.66
2019-02-20T08:54:09.434Z,3.87
2019-02-20T08:57:22.917Z,4.15
2019-02-20T09:00:36.779Z,4.48
2019-02-20T09:03:50.307Z,4.83
2019-02-20T09:07:03.979Z,5.19
2019-02-20T09:10:17.989Z,5.69
2019-02-20T09:13:31.493Z,6.26
2019-02-20T09:16:45.056Z,6.79
2019-02-20T09:19:58.557Z,7.23
2019-02-20T09:23:12.042Z,7.57
2019-02-20T09:26:25.671Z,7.99
2019-02-20T09:29:39.275Z,8.36
2019-02-20T09:32:52.754Z,8.53
2019-02-20T09:36:06.237Z,8.76
2019-02-20T09:39:28.612Z,8.84
2019-02-20T09:42:44.058Z,9.10
2019-02-20T09:45:57.586Z,9.54
2019-02-20T09:49:11.327Z,9.89
2019-02-20T09:52:24.816Z,10.19
2019-02-20T09:55:38.419Z,10.38
2019-02-20T09:58:51.903Z,10.46
2019-02-20T10:02:05.617Z,10.73
2019-02-20T10:05:19.110Z,10.74
2019-02-20T10:08:32.638Z,10.90
2019-02-20T10:11:46.177Z,10.94
2019-02-20T10:14:59.749Z,11.08
2019-02-20T10:18:13.541Z,10.82
2019-02-20T10:21:27.685Z,10.88
2019-02-20T10:24:41.168Z,11.12
2019-02-20T10:27:55.135Z,11.24
2019-02-20T10:31:08.622Z,11.34
2019-02-20T10:34:22.588Z,11.42
2019-02-20T10:37:36.437Z,11.52
2019-02-20T10:40:50.008Z,11.56
2019-02-20T10:44:05.766Z,11.87
2019-02-20T10:47:19.282Z,12.10
2019-02-20T10:50:32.812Z,12.25
2019-02-20T10:53:48.154Z,12.59
2019-02-20T10:57:01.833Z,12.81
2019-02-20T11:00:24.659Z,13.17
2019-02-20T11:03:38.357Z,13.46
2019-02-20T11:06:51.838Z,13.96
2019-02-20T11:10:05.902Z,13.78
2019-02-20T11:13:19.379Z,13.36
2019-02-20T11:16:33.153Z,12.98
2019-02-20T11:19:46.742Z,13.00
2019-02-20T11:23:00.568Z,13.09
2019-02-20T11:26:26.502Z,12.97
2019-02-20T11:29:41.428Z,13.10
2019-02-20T11:32:54.917Z,12.99
2019-02-20T11:36:30.137Z,13.06
2019-02-20T11:39:43.909Z,13.19
2019-02-20T11:42:59.022Z,13.74
2019-02-20T11:46:14.203Z,13.95
2019-02-20T11:49:31.670Z,14.02
2019-02-20T11:52:45.199Z,13.44
2019-02-20T11:55:58.702Z,13.33
2019-02-20T11:59:12.194Z,13.08
2019-02-20T12:02:26.006Z,13.20
2019-02-20T12:05:39.909Z,13.38
2019-02-20T12:08:55.636Z,13.87
2019-02-20T12:12:09.571Z,14.66
2019-02-20T12:15:23.129Z,14.96
2019-02-20T12:18:36.887Z,15.24
2019-02-20T12:21:50.451Z,15.18
2019-02-20T12:25:04.142Z,15.06
2019-02-20T12:28:17.946Z,15.01
2019-02-20T12:31:31.575Z,15.33
2019-02-20T12:34:46.454Z,15.56
2019-02-20T12:38:00.183Z,16.04
2019-02-20T12:41:13.927Z,16.70
2019-02-20T12:44:27.468Z,16.41
2019-02-20T12:47:42.092Z,16.18
2019-02-20T12:50:55.902Z,15.93
2019-02-20T12:54:09.456Z,16.06
2019-02-20T12:57:23.252Z,16.25
2019-02-20T13:00:36.935Z,16.30
2019-02-20T13:03:50.813Z,16.51
2019-02-20T13:07:04.295Z,16.02
2019-02-20T13:10:17.938Z,15.87
2019-02-20T13:13:31.508Z,15.77
2019-02-20T13:16:45.545Z,15.40
2019-02-20T13:19:59.326Z,15.34
2019-02-20T13:23:13.275Z,15.19
2019-02-20T13:26:26.786Z,15.02
2019-02-20T13:29:40.316Z,14.73
2019-02-20T13:32:53.865Z,14.49
2019-02-20T13:36:07.884Z,13.89
2019-02-20T13:39:21.684Z,13.91
2019-02-20T13:42:35.182Z,13.94
2019-02-20T13:45:48.738Z,13.96
2019-02-20T13:49:02.444Z,14.07
2019-02-20T13:52:16.261Z,14.24
2019-02-20T13:55:34.529Z,14.34
2019-02-20T13:58:46.868Z,14.51
2019-02-20T14:02:00.397Z,14.28
2019-02-20T14:05:14.322Z,13.91
2019-02-20T14:08:28.591Z,13.44
2019-02-20T14:11:44.633Z,13.53
2019-02-20T14:14:59.708Z,13.40
2019-02-20T14:18:13.335Z,13.40
2019-02-20T14:21:27.017Z,13.52
2019-02-20T14:24:40.837Z,13.61
2019-02-20T14:27:54.760Z,13.59
2019-02-20T14:31:08.604Z,13.59
2019-02-20T14:34:22.410Z,13.94
2019-02-20T14:37:36.128Z,13.67
2019-02-20T14:40:49.904Z,13.59
2019-02-20T14:44:04.790Z,13.81
2019-02-20T14:47:18.260Z,14.15
2019-02-20T14:50:31.878Z,14.31
2019-02-20T14:53:45.415Z,14.06
2019-02-20T14:57:01.085Z,13.72
2019-02-20T15:00:15.229Z,13.37
2019-02-20T15:03:28.948Z,13.19
2019-02-20T15:06:42.877Z,13.12
2019-02-20T15:09:57.184Z,13.07
2019-02-20T15:13:11.198Z,12.87
2019-02-20T15:16:25.455Z,12.72
2019-02-20T15:19:39.494Z,12.74
2019-02-20T15:22:53.888Z,12.85
2019-02-20T15:26:08.008Z,12.90
2019-02-20T15:29:21.498Z,12.77
2019-02-20T15:32:39.872Z,12.77
2019-02-20T15:35:55.984Z,12.56
2019-02-20T15:39:10.601Z,12.38
2019-02-20T15:42:31.011Z,12.40
2019-02-20T15:45:44.704Z,12.32
2019-02-20T15:48:58.501Z,12.19
2019-02-20T15:52:12.200Z,12.03
2019-02-20T15:55:25.646Z,11.99
2019-02-20T15:58:39.281Z,12.04
2019-02-20T16:01:52.871Z,12.05
2019-02-20T16:05:06.645Z,11.99
2019-02-20T16:08:20.624Z,11.82
2019-02-20T16:11:34.183Z,11.48
2019-02-20T16:14:48.321Z,11.36
2019-02-20T16:18:01.904Z,11.35
2019-02-20T16:21:15.424Z,11.40
2019-02-20T16:24:29.212Z,11.26
2019-02-20T16:27:47.033Z,11.04
2019-02-20T16:30:58.621Z,10.99
2019-02-20T16:34:12.114Z,10.84
2019-02-20T16:37:25.587Z,10.71
2019-02-20T16:40:39.370Z,10.69
2019-02-20T16:43:52.938Z,10.64
2019-02-20T16:47:06.434Z,10.41
2019-02-20T16:50:20.037Z,10.27
2019-02-20T16:53:33.708Z,10.09
2019-02-20T16:56:47.446Z,9.94
2019-02-20T17:00:01.275Z,9.67
2019-02-20T17:03:15.066Z,9.47
2019-02-20T17:06:28.623Z,9.34
2019-02-20T17:09:42.100Z,9.27
2019-02-20T17:12:55.969Z,9.02
2019-02-20T17:16:10.449Z,8.97
2019-02-20T17:19:24.230Z,8.78
2019-02-20T17:22:37.800Z,8.56
2019-02-20T17:25:51.800Z,8.45
2019-02-20T17:29:05.933Z,8.37
2019-02-20T17:32:19.610Z,8.34
2019-02-20T17:35:33.361Z,8.30
2019-02-20T17:38:46.972Z,8.25
2019-02-20T17:42:00.427Z,8.18
2019-02-20T17:45:14.250Z,8.12
2019-02-20T17:48:28.526Z,8.01
2019-02-20T17:51:41.987Z,7.91
2019-02-20T17:54:55.468Z,7.74
2019-02-20T17:58:14.737Z,7.65
2019-02-20T18:01:24.510Z,7.48
2019-02-20T18:04:38.667Z,7.33
2019-02-20T18:07:52.152Z,7.23
2019-02-20T18:11:07.435Z,7.12
2019-02-20T18:14:20.959Z,7.04
2019-02-20T18:17:34.511Z,6.97
2019-02-20T18:20:48.011Z,6.87
2019-02-20T18:24:01.487Z,6.66
2019-02-20T18:27:14.965Z,6.46
2019-02-20T18:30:28.931Z,6.36
2019-02-20T18:33:42.392Z,6.30
2019-02-20T18:36:55.886Z,6.22
2019-02-20T18:40:10.023Z,6.10
2019-02-20T18:43:23.572Z,5.87
2019-02-20T18:46:37.165Z,5.77
2019-02-20T18:49:50.621Z,5.68
2019-02-20T18:53:04.585Z,5.59
2019-02-20T18:56:18.023Z,5.48
2019-02-20T18:59:31.507Z,5.39
2019-02-20T19:02:45.079Z,5.25
2019-02-20T19:05:58.578Z,5.15
2019-02-20T19:09:16.668Z,4.92
2019-02-20T19:13:10.906Z,4.73
2019-02-20T19:17:09.314Z,4.62
2019-02-20T19:20:52.662Z,4.47
2019-02-20T19:24:47.302Z,4.41
2019-02-20T19:28:44.083Z,4.35
2019-02-20T19:32:21.351Z,4.30
2019-02-20T19:36:19.034Z,4.24
2019-02-20T19:39:54.565Z,4.02
2019-02-20T19:43:37.696Z,3.86
2019-02-20T19:47:16.350Z,3.82
2019-02-20T19:50:39.934Z,3.78
2019-02-20T19:54:13.705Z,3.75
2019-02-20T19:57:56.857Z,3.48
2019-02-20T20:01:36.577Z,3.38
2019-02-20T20:05:22.529Z,3.29
2019-02-20T20:09:06.900Z,3.28
2019-02-20T20:12:37.589Z,3.24
2019-02-20T20:16:28.329Z,3.10
2019-02-20T20:20:12.776Z,3.04
2019-02-20T20:24:26.379Z,2.91
2019-02-20T20:28:21.555Z,2.79
2019-02-20T20:32:13.709Z,2.67
2019-02-20T20:36:20.330Z,2.69
2019-02-20T20:40:11.695Z,2.57
2019-02-20T20:44:09.942Z,2.49
2019-02-20T20:47:55.927Z,2.47
2019-02-20T20:51:36.954Z,2.33
2019-02-20T20:55:32.679Z,2.23
2019-02-20T20:59:16.896Z,2.29
2019-02-20T21:02:35.408Z,2.31
2019-02-20T21:06:14.366Z,2.31
2019-02-20T21:10:06.587Z,2.31
2019-02-20T21:13:46.330Z,2.17
2019-02-20T21:17:35.831Z,2.08
2019-02-20T21:21:16.755Z,1.95
2019-02-20T21:25:00.321Z,1.95
2019-02-20T21:28:26.159Z,1.85
2019-02-20T21:32:20.531Z,1.81
2019-02-20T21:36:05.443Z,1.75
2019-02-20T21:39:28.373Z,1.60
2019-02-20T21:43:02.362Z,1.62
2019-02-20T21:46:53.389Z,1.71
2019-02-20T21:50:32.406Z,1.72
2019-02-20T21:54:21.595Z,1.52
2019-02-20T21:58:01.206Z,1.38
2019-02-20T22:01:56.628Z,1.30
2019-02-20T22:05:38.521Z,1.22
2019-02-20T22:09:11.496Z,1.26
2019-02-20T22:12:53.460Z,1.36
2019-02-20T22:16:48.443Z,1.38
2019-02-20T22:21:05.713Z,1.36
2019-02-20T22:24:28.966Z,1.31
2019-02-20T22:27:53.555Z,1.35
2019-02-20T22:31:42.286Z,1.36
2019-02-20T22:35:36.748Z,1.36
2019-02-20T22:39:25.046Z,1.32
2019-02-20T22:43:08.306Z,1.20
2019-02-20T22:46:53.051Z,1.16
2019-02-20T22:50:14.763Z,1.07
2019-02-20T22:53:50.089Z,1.05
2019-02-20T22:57:37.845Z,1.10
2019-02-20T23:01:20.954Z,1.16
2019-02-20T23:05:07.651Z,0.95
2019-02-20T23:09:15.236Z,0.90
2019-02-20T23:12:44.993Z,0.93
2019-02-20T23:15:58.457Z,0.82
2019-02-20T23:19:11.915Z,0.74
2019-02-20T23:22:25.655Z,0.80
2019-02-20T23:25:39.133Z,0.87
2019-02-20T23:28:52.625Z,0.94
2019-02-20T23:32:06.213Z,0.97
2019-02-20T23:35:19.716Z,0.91
2019-02-20T23:38:33.203Z,0.82
2019-02-20T23:41:46.791Z,0.74
2019-02-20T23:45:00.467Z,0.70
2019-02-20T23:48:13.937Z,0.75
2019-02-20T23:51:27.411Z,0.81
2019-02-20T23:54:40.886Z,0.88
2019-02-20T23:57:54.355Z,0.94
